createdAt,value
2022-11-11T00:00:32.000Z,7.39
2022-11-11T00:01:31.000Z,7.40
2022-11-11T00:02:31.000Z,7.34
2022-11-11T00:03:32.000Z,7.36
2022-11-11T00:04:31.000Z,7.40
2022-11-11T00:05:31.000Z,7.39
2022-11-11T00:06:31.000Z,7.41
2022-11-11T00:07:31.000Z,7.42
2022-11-11T00:08:31.000Z,7.40
2022-11-11T00:09:31.000Z,7.38
2022-11-11T00:10:31.000Z,7.37
2022-11-11T00:11:31.000Z,7.38
2022-11-11T00:12:31.000Z,7.35
2022-11-11T00:13:33.000Z,7.35
2022-11-11T00:14:31.000Z,7.32
2022-11-11T00:15:35.000Z,7.31
2022-11-11T00:16:46.000Z,7.32
2022-11-11T00:17:36.000Z,7.34
2022-11-11T00:18:37.000Z,7.33
2022-11-11T00:19:36.000Z,7.33
2022-11-11T00:20:37.000Z,7.32
2022-11-11T00:21:36.000Z,7.33
2022-11-11T00:22:36.000Z,7.33
2022-11-11T00:23:36.000Z,7.30
2022-11-11T00:24:36.000Z,7.33
2022-11-11T00:25:31.000Z,7.30
2022-11-11T00:26:31.000Z,7.29
2022-11-11T00:27:33.000Z,7.32
2022-11-11T00:28:32.000Z,7.31
2022-11-11T00:29:32.000Z,7.34
2022-11-11T00:30:31.000Z,7.30
2022-11-11T00:31:34.000Z,7.31
2022-11-11T00:32:32.000Z,7.28
2022-11-11T00:33:32.000Z,7.29
2022-11-11T00:34:31.000Z,7.27
2022-11-11T00:35:37.000Z,7.26
2022-11-11T00:36:32.000Z,7.28
2022-11-11T00:37:32.000Z,7.27
2022-11-11T00:38:37.000Z,7.26
2022-11-11T00:39:31.000Z,7.25
2022-11-11T00:40:32.000Z,7.25
2022-11-11T00:41:32.000Z,7.24
2022-11-11T00:42:32.000Z,7.22
2022-11-11T00:43:32.000Z,7.25
2022-11-11T00:44:32.000Z,7.22
2022-11-11T00:45:31.000Z,7.22
2022-11-11T00:46:37.000Z,7.21
2022-11-11T00:47:37.000Z,7.24
2022-11-11T00:48:37.000Z,7.23
2022-11-11T00:49:37.000Z,7.21
2022-11-11T00:50:37.000Z,7.24
2022-11-11T00:51:32.000Z,7.21
2022-11-11T00:52:31.000Z,7.20
2022-11-11T00:53:34.000Z,7.22
2022-11-11T00:54:31.000Z,7.20
2022-11-11T00:55:32.000Z,7.16
2022-11-11T00:56:32.000Z,7.22
2022-11-11T00:57:31.000Z,7.20
2022-11-11T00:58:31.000Z,7.19
2022-11-11T00:59:31.000Z,7.21
2022-11-11T01:00:31.000Z,7.19
2022-11-11T01:01:33.000Z,7.19
2022-11-11T01:02:31.000Z,7.19
2022-11-11T01:03:31.000Z,7.18
2022-11-11T01:04:31.000Z,7.21
2022-11-11T01:05:31.000Z,7.19
2022-11-11T01:06:31.000Z,7.14
2022-11-11T01:07:31.000Z,7.15
2022-11-11T01:08:31.000Z,7.14
2022-11-11T01:09:31.000Z,7.13
2022-11-11T01:10:36.000Z,7.13
2022-11-11T01:11:32.000Z,7.14
2022-11-11T01:12:31.000Z,7.16
2022-11-11T01:13:31.000Z,7.18
2022-11-11T01:14:31.000Z,7.15
2022-11-11T01:15:32.000Z,7.14
2022-11-11T01:16:31.000Z,7.15
2022-11-11T01:17:31.000Z,7.13
2022-11-11T01:18:31.000Z,7.14
2022-11-11T01:19:31.000Z,7.12
2022-11-11T01:20:32.000Z,7.11
2022-11-11T01:21:31.000Z,7.10
2022-11-11T01:22:31.000Z,7.11
2022-11-11T01:23:34.000Z,7.08
2022-11-11T01:24:31.000Z,7.10
2022-11-11T01:25:35.000Z,7.07
2022-11-11T01:26:31.000Z,7.08
2022-11-11T01:27:32.000Z,7.09
2022-11-11T01:28:32.000Z,7.09
2022-11-11T01:29:31.000Z,7.09
2022-11-11T01:30:32.000Z,7.11
2022-11-11T01:31:31.000Z,7.09
2022-11-11T01:32:31.000Z,7.11
2022-11-11T01:33:32.000Z,7.12
2022-11-11T01:34:31.000Z,7.11
2022-11-11T01:35:37.000Z,7.08
2022-11-11T01:36:31.000Z,7.09
2022-11-11T01:37:32.000Z,7.08
2022-11-11T01:38:32.000Z,7.07
2022-11-11T01:39:31.000Z,7.06
2022-11-11T01:40:39.000Z,7.08
2022-11-11T01:41:34.000Z,7.09
2022-11-11T01:42:48.000Z,7.07
2022-11-11T01:43:31.000Z,6.87
2022-11-11T01:44:41.000Z,6.75
2022-11-11T01:45:41.000Z,6.77
2022-11-11T01:46:37.000Z,6.73
2022-11-11T01:47:47.000Z,6.74
2022-11-11T01:48:49.000Z,6.71
2022-11-11T01:49:42.000Z,6.67
2022-11-11T01:50:32.000Z,6.68
2022-11-11T01:51:39.000Z,6.65
2022-11-11T01:52:36.000Z,6.65
2022-11-11T01:53:31.000Z,6.64
2022-11-11T01:54:37.000Z,6.63
2022-11-11T01:55:32.000Z,6.59
2022-11-11T01:56:32.000Z,6.59
2022-11-11T01:57:45.000Z,6.58
2022-11-11T01:58:31.000Z,6.59
2022-11-11T01:59:34.000Z,6.59
2022-11-11T02:00:32.000Z,6.58
2022-11-11T02:01:34.000Z,6.58
2022-11-11T02:02:39.000Z,6.57
2022-11-11T02:03:37.000Z,6.56
2022-11-11T02:04:37.000Z,6.57
2022-11-11T02:05:36.000Z,6.58
2022-11-11T02:06:32.000Z,6.57
2022-11-11T02:07:34.000Z,6.58
2022-11-11T02:08:35.000Z,6.60
2022-11-11T02:09:32.000Z,6.59
2022-11-11T02:10:32.000Z,6.57
2022-11-11T02:11:40.000Z,6.58
2022-11-11T02:12:36.000Z,6.59
2022-11-11T02:13:39.000Z,6.57
2022-11-11T02:14:40.000Z,6.58
2022-11-11T02:15:32.000Z,6.59
2022-11-11T02:16:32.000Z,6.57
2022-11-11T02:17:32.000Z,6.58
2022-11-11T02:18:32.000Z,6.57
2022-11-11T02:19:48.000Z,6.58
2022-11-11T02:20:39.000Z,6.58
2022-11-11T02:21:40.000Z,6.57
2022-11-11T02:22:46.000Z,6.57
2022-11-11T02:24:04.000Z,6.58
2022-11-11T02:24:32.000Z,6.56
2022-11-11T02:25:35.000Z,6.59
2022-11-11T02:26:35.000Z,6.61
2022-11-11T02:27:36.000Z,6.61
2022-11-11T02:28:32.000Z,6.59
2022-11-11T02:29:32.000Z,6.61
2022-11-11T02:30:31.000Z,6.62
2022-11-11T02:31:31.000Z,6.65
2022-11-11T02:32:31.000Z,6.63
2022-11-11T02:33:31.000Z,6.63
2022-11-11T02:34:32.000Z,6.66
2022-11-11T02:35:38.000Z,6.66
2022-11-11T02:36:31.000Z,6.66
2022-11-11T02:37:31.000Z,6.62
2022-11-11T02:38:31.000Z,6.58
2022-11-11T02:39:35.000Z,6.59
2022-11-11T02:40:35.000Z,6.59
2022-11-11T02:41:36.000Z,6.60
2022-11-11T02:42:33.000Z,6.60
2022-11-11T02:43:32.000Z,6.62
2022-11-11T02:44:31.000Z,6.61
2022-11-11T02:45:31.000Z,6.59
2022-11-11T02:46:31.000Z,6.60
2022-11-11T02:47:31.000Z,6.56
2022-11-11T02:48:31.000Z,6.56
2022-11-11T02:49:31.000Z,6.56
2022-11-11T02:50:31.000Z,6.55
2022-11-11T02:51:31.000Z,6.56
2022-11-11T02:52:31.000Z,6.56
2022-11-11T02:53:31.000Z,6.56
2022-11-11T02:54:31.000Z,6.57
2022-11-11T02:55:31.000Z,6.57
2022-11-11T02:56:36.000Z,6.58
2022-11-11T02:57:32.000Z,6.60
2022-11-11T02:58:31.000Z,6.64
2022-11-11T02:59:32.000Z,6.65
2022-11-11T03:00:32.000Z,6.61
2022-11-11T03:01:32.000Z,6.63
2022-11-11T03:02:32.000Z,6.64
2022-11-11T03:03:32.000Z,6.64
2022-11-11T03:04:32.000Z,6.65
2022-11-11T03:05:32.000Z,6.67
2022-11-11T03:06:32.000Z,6.65
2022-11-11T03:07:32.000Z,6.63
2022-11-11T03:08:32.000Z,6.64
2022-11-11T03:09:32.000Z,6.64
2022-11-11T03:10:32.000Z,6.64
2022-11-11T03:11:32.000Z,6.62
2022-11-11T03:12:32.000Z,6.65
2022-11-11T03:13:32.000Z,6.64
2022-11-11T03:14:32.000Z,6.64
2022-11-11T03:15:32.000Z,6.64
2022-11-11T03:16:37.000Z,6.63
2022-11-11T03:17:37.000Z,6.64
2022-11-11T03:18:32.000Z,6.64
2022-11-11T03:19:32.000Z,6.64
2022-11-11T03:20:37.000Z,6.63
2022-11-11T03:21:32.000Z,6.61
2022-11-11T03:21:32.000Z,6.61
2022-11-11T03:23:16.000Z,6.64
2022-11-11T03:23:32.000Z,6.62
2022-11-11T03:24:37.000Z,6.61
2022-11-11T03:25:42.000Z,6.62
2022-11-11T03:26:32.000Z,6.58
2022-11-11T03:27:32.000Z,6.59
2022-11-11T03:28:32.000Z,6.61
2022-11-11T03:29:32.000Z,6.60
2022-11-11T03:30:32.000Z,6.57
2022-11-11T03:31:31.000Z,6.57
2022-11-11T03:32:31.000Z,6.49
2022-11-11T03:33:31.000Z,6.52
2022-11-11T03:34:31.000Z,6.49
2022-11-11T03:35:32.000Z,6.43
2022-11-11T03:36:46.000Z,6.44
2022-11-11T03:37:36.000Z,6.44
2022-11-11T03:38:31.000Z,6.44
2022-11-11T03:39:31.000Z,6.42
2022-11-11T03:40:31.000Z,6.39
2022-11-11T03:41:31.000Z,6.36
2022-11-11T03:42:32.000Z,6.34
2022-11-11T03:43:33.000Z,6.30
2022-11-11T03:44:31.000Z,6.30
2022-11-11T03:45:31.000Z,6.32
2022-11-11T03:46:31.000Z,6.33
2022-11-11T03:47:31.000Z,6.34
2022-11-11T03:48:33.000Z,6.33
2022-11-11T03:49:31.000Z,6.31
2022-11-11T03:50:32.000Z,6.29
2022-11-11T03:51:31.000Z,6.28
2022-11-11T03:52:31.000Z,6.26
2022-11-11T03:53:31.000Z,6.28
2022-11-11T03:54:31.000Z,6.27
2022-11-11T03:55:32.000Z,6.24
2022-11-11T03:56:31.000Z,6.26
2022-11-11T03:57:32.000Z,6.25
2022-11-11T03:58:31.000Z,6.25
2022-11-11T03:59:31.000Z,6.21
2022-11-11T04:00:32.000Z,6.21
2022-11-11T04:01:36.000Z,6.22
2022-11-11T04:02:36.000Z,6.21
2022-11-11T04:03:36.000Z,6.20
2022-11-11T04:04:36.000Z,6.20
2022-11-11T04:05:36.000Z,6.18
2022-11-11T04:06:36.000Z,6.18
2022-11-11T04:07:36.000Z,6.17
2022-11-11T04:08:36.000Z,6.16
2022-11-11T04:09:36.000Z,6.18
2022-11-11T04:10:31.000Z,6.19
2022-11-11T04:11:37.000Z,6.19
2022-11-11T04:12:46.000Z,6.19
2022-11-11T04:13:39.000Z,6.21
2022-11-11T04:14:36.000Z,6.18
2022-11-11T04:15:36.000Z,6.20
2022-11-11T04:16:31.000Z,6.19
2022-11-11T04:17:31.000Z,6.19
2022-11-11T04:18:36.000Z,6.19
2022-11-11T04:19:36.000Z,6.20
2022-11-11T04:20:36.000Z,6.21
2022-11-11T04:21:36.000Z,6.20
2022-11-11T04:22:31.000Z,6.21
2022-11-11T04:23:31.000Z,6.21
2022-11-11T04:24:36.000Z,6.17
2022-11-11T04:25:36.000Z,6.20
2022-11-11T04:26:31.000Z,6.21
2022-11-11T04:27:31.000Z,6.21
2022-11-11T04:28:36.000Z,6.21
2022-11-11T04:29:31.000Z,6.18
2022-11-11T04:30:31.000Z,6.18
2022-11-11T04:31:31.000Z,6.16
2022-11-11T04:32:34.000Z,6.16
2022-11-11T04:33:32.000Z,6.15
2022-11-11T04:34:31.000Z,6.12
2022-11-11T04:35:31.000Z,6.12
2022-11-11T04:36:31.000Z,6.09
2022-11-11T04:37:34.000Z,6.08
2022-11-11T04:38:37.000Z,6.06
2022-11-11T04:39:37.000Z,6.03
2022-11-11T04:40:36.000Z,6.02
2022-11-11T04:41:31.000Z,6.01
2022-11-11T04:42:32.000Z,6.01
2022-11-11T04:43:46.000Z,6.01
2022-11-11T04:44:37.000Z,6.00
2022-11-11T04:45:32.000Z,6.00
2022-11-11T04:46:31.000Z,6.02
2022-11-11T04:47:32.000Z,6.03
2022-11-11T04:48:31.000Z,6.04
2022-11-11T04:49:31.000Z,6.05
2022-11-11T04:50:38.000Z,6.05
2022-11-11T04:51:46.000Z,6.06
2022-11-11T04:52:31.000Z,6.06
2022-11-11T04:53:31.000Z,6.06
2022-11-11T04:54:46.000Z,6.07
2022-11-11T04:55:38.000Z,6.07
2022-11-11T04:56:37.000Z,6.07
2022-11-11T04:57:31.000Z,6.07
2022-11-11T04:58:33.000Z,6.07
2022-11-11T04:59:31.000Z,6.09
2022-11-11T05:00:32.000Z,6.07
2022-11-11T05:01:36.000Z,6.09
2022-11-11T05:02:37.000Z,6.10
2022-11-11T05:03:31.000Z,6.11
2022-11-11T05:04:31.000Z,6.10
2022-11-11T05:05:55.000Z,6.10
2022-11-11T05:06:37.000Z,6.11
2022-11-11T05:07:37.000Z,6.12
2022-11-11T05:08:39.000Z,6.13
2022-11-11T05:09:31.000Z,6.12
2022-11-11T05:10:32.000Z,6.14
2022-11-11T05:11:35.000Z,6.14
2022-11-11T05:12:31.000Z,6.15
2022-11-11T05:13:37.000Z,6.14
2022-11-11T05:14:37.000Z,6.15
2022-11-11T05:15:37.000Z,6.15
2022-11-11T05:16:41.000Z,6.15
2022-11-11T05:17:37.000Z,6.17
2022-11-11T05:18:37.000Z,6.17
2022-11-11T05:19:37.000Z,6.19
2022-11-11T05:20:37.000Z,6.20
2022-11-11T05:21:33.000Z,6.23
2022-11-11T05:22:34.000Z,6.21
2022-11-11T05:23:37.000Z,6.23
2022-11-11T05:24:37.000Z,6.24
2022-11-11T05:25:33.000Z,6.24
2022-11-11T05:26:32.000Z,6.23
2022-11-11T05:27:32.000Z,6.25
2022-11-11T05:28:31.000Z,6.25
2022-11-11T05:29:31.000Z,6.29
2022-11-11T05:30:33.000Z,6.34
2022-11-11T05:31:31.000Z,6.33
2022-11-11T05:32:31.000Z,6.34
2022-11-11T05:33:31.000Z,6.37
2022-11-11T05:34:32.000Z,6.33
2022-11-11T05:35:31.000Z,6.36
2022-11-11T05:36:32.000Z,6.44
2022-11-11T05:37:32.000Z,6.44
2022-11-11T05:38:32.000Z,6.45
2022-11-11T05:39:31.000Z,6.47
2022-11-11T05:40:32.000Z,6.49
2022-11-11T05:41:31.000Z,6.43
2022-11-11T05:42:32.000Z,6.46
2022-11-11T05:43:32.000Z,6.49
2022-11-11T05:44:31.000Z,6.50
2022-11-11T05:45:32.000Z,6.48
2022-11-11T05:46:31.000Z,6.45
2022-11-11T05:47:31.000Z,6.45
2022-11-11T05:48:32.000Z,6.47
2022-11-11T05:49:32.000Z,6.44
2022-11-11T05:50:31.000Z,6.43
2022-11-11T05:51:32.000Z,6.42
2022-11-11T05:52:32.000Z,6.42
2022-11-11T05:53:33.000Z,6.43
2022-11-11T05:54:32.000Z,6.41
2022-11-11T05:55:32.000Z,6.40
2022-11-11T05:56:31.000Z,6.39
2022-11-11T05:57:31.000Z,6.40
2022-11-11T05:58:31.000Z,6.40
2022-11-11T05:59:32.000Z,6.38
2022-11-11T06:00:32.000Z,6.39
2022-11-11T06:01:32.000Z,6.37
2022-11-11T06:02:31.000Z,6.35
2022-11-11T06:03:30.000Z,6.35
2022-11-11T06:04:33.000Z,6.36
2022-11-11T06:05:31.000Z,6.34
2022-11-11T06:06:32.000Z,6.36
2022-11-11T06:07:31.000Z,6.35
2022-11-11T06:08:30.000Z,6.34
2022-11-11T06:09:30.000Z,6.35
2022-11-11T06:10:31.000Z,6.38
2022-11-11T06:11:31.000Z,6.37
2022-11-11T06:12:45.000Z,6.37
2022-11-11T06:13:31.000Z,6.41
2022-11-11T06:14:31.000Z,6.39
2022-11-11T06:15:35.000Z,6.37
2022-11-11T06:16:31.000Z,6.39
2022-11-11T06:17:32.000Z,6.40
2022-11-11T06:18:31.000Z,6.39
2022-11-11T06:19:30.000Z,6.40
2022-11-11T06:20:33.000Z,6.40
2022-11-11T06:21:45.000Z,6.40
2022-11-11T06:22:48.000Z,6.39
2022-11-11T06:23:31.000Z,6.40
2022-11-11T06:24:30.000Z,6.41
2022-11-11T06:25:36.000Z,6.40
2022-11-11T06:26:30.000Z,6.39
2022-11-11T06:27:31.000Z,6.38
2022-11-11T06:28:31.000Z,6.37
2022-11-11T06:29:31.000Z,6.37
2022-11-11T06:30:30.000Z,6.38
2022-11-11T06:31:31.000Z,6.38
2022-11-11T06:32:31.000Z,6.39
2022-11-11T06:33:34.000Z,6.39
2022-11-11T06:34:30.000Z,6.39
2022-11-11T06:35:32.000Z,6.40
2022-11-11T06:36:31.000Z,6.36
2022-11-11T06:37:30.000Z,6.37
2022-11-11T06:38:31.000Z,6.38
2022-11-11T06:39:30.000Z,6.38
2022-11-11T06:40:31.000Z,6.38
2022-11-11T06:41:31.000Z,6.38
2022-11-11T06:42:34.000Z,6.39
2022-11-11T06:43:31.000Z,6.39
2022-11-11T06:44:30.000Z,6.37
2022-11-11T06:45:33.000Z,6.36
2022-11-11T06:46:31.000Z,6.39
2022-11-11T06:47:30.000Z,6.40
2022-11-11T06:48:30.000Z,6.38
2022-11-11T06:49:30.000Z,6.38
2022-11-11T06:50:31.000Z,6.38
2022-11-11T06:51:30.000Z,6.39
2022-11-11T06:52:31.000Z,6.41
2022-11-11T06:53:30.000Z,6.40
2022-11-11T06:54:30.000Z,6.42
2022-11-11T06:55:32.000Z,6.39
2022-11-11T06:56:31.000Z,6.41
2022-11-11T06:57:31.000Z,6.42
2022-11-11T06:58:31.000Z,6.44
2022-11-11T06:59:30.000Z,6.44
2022-11-11T07:00:32.000Z,6.44
2022-11-11T07:01:31.000Z,6.43
2022-11-11T07:02:31.000Z,6.47
2022-11-11T07:03:32.000Z,6.48
2022-11-11T07:04:31.000Z,6.49
2022-11-11T07:05:32.000Z,6.47
2022-11-11T07:06:31.000Z,6.47
2022-11-11T07:07:31.000Z,6.47
2022-11-11T07:08:31.000Z,6.47
2022-11-11T07:09:31.000Z,6.45
2022-11-11T07:10:34.000Z,6.46
2022-11-11T07:11:31.000Z,6.47
2022-11-11T07:12:31.000Z,6.46
2022-11-11T07:13:31.000Z,6.46
2022-11-11T07:14:32.000Z,6.49
2022-11-11T07:15:32.000Z,6.49
2022-11-11T07:16:31.000Z,6.49
2022-11-11T07:17:31.000Z,6.50
2022-11-11T07:18:31.000Z,6.53
2022-11-11T07:19:31.000Z,6.50
2022-11-11T07:20:32.000Z,6.52
2022-11-11T07:21:31.000Z,6.53
2022-11-11T07:22:35.000Z,6.55
2022-11-11T07:23:31.000Z,6.56
2022-11-11T07:24:31.000Z,6.55
2022-11-11T07:25:32.000Z,6.55
2022-11-11T07:26:31.000Z,6.56
2022-11-11T07:27:36.000Z,6.53
2022-11-11T07:28:31.000Z,6.53
2022-11-11T07:29:31.000Z,6.56
2022-11-11T07:30:31.000Z,6.56
2022-11-11T07:31:31.000Z,6.56
2022-11-11T07:32:32.000Z,6.57
2022-11-11T07:33:31.000Z,6.56
2022-11-11T07:34:31.000Z,6.58
2022-11-11T07:35:31.000Z,6.60
2022-11-11T07:36:31.000Z,6.59
2022-11-11T07:37:31.000Z,6.59
2022-11-11T07:38:31.000Z,6.58
2022-11-11T07:39:31.000Z,6.58
2022-11-11T07:40:31.000Z,6.57
2022-11-11T07:41:31.000Z,6.57
2022-11-11T07:42:35.000Z,6.58
2022-11-11T07:43:31.000Z,6.57
2022-11-11T07:44:31.000Z,6.57
2022-11-11T07:45:31.000Z,6.58
2022-11-11T07:46:31.000Z,6.60
2022-11-11T07:47:33.000Z,6.58
2022-11-11T07:48:31.000Z,6.61
2022-11-11T07:49:31.000Z,6.61
2022-11-11T07:50:31.000Z,6.61
2022-11-11T07:51:31.000Z,6.62
2022-11-11T07:52:31.000Z,6.64
2022-11-11T07:53:31.000Z,6.67
2022-11-11T07:54:31.000Z,6.68
2022-11-11T07:55:31.000Z,6.71
2022-11-11T07:56:31.000Z,6.72
2022-11-11T07:57:31.000Z,6.70
2022-11-11T07:58:31.000Z,6.70
2022-11-11T07:59:31.000Z,6.70
2022-11-11T08:00:31.000Z,6.71
2022-11-11T08:01:31.000Z,6.70
2022-11-11T08:02:31.000Z,6.70
2022-11-11T08:03:31.000Z,6.72
2022-11-11T08:04:30.000Z,6.75
2022-11-11T08:05:31.000Z,6.75
2022-11-11T08:06:31.000Z,6.75
2022-11-11T08:07:32.000Z,6.75
2022-11-11T08:08:31.000Z,6.79
2022-11-11T08:09:31.000Z,6.78
2022-11-11T08:10:31.000Z,6.80
2022-11-11T08:11:36.000Z,6.81
2022-11-11T08:12:36.000Z,6.83
2022-11-11T08:13:36.000Z,6.84
2022-11-11T08:14:31.000Z,6.87
2022-11-11T08:15:31.000Z,6.85
2022-11-11T08:16:31.000Z,6.85
2022-11-11T08:17:35.000Z,6.86
2022-11-11T08:18:31.000Z,6.86
2022-11-11T08:19:31.000Z,6.88
2022-11-11T08:20:31.000Z,6.89
2022-11-11T08:21:30.000Z,6.88
2022-11-11T08:22:36.000Z,6.93
2022-11-11T08:23:31.000Z,6.96
2022-11-11T08:23:31.000Z,6.96
2022-11-11T08:25:03.000Z,6.96
2022-11-11T08:25:31.000Z,6.97
2022-11-11T08:26:30.000Z,6.98
2022-11-11T08:27:31.000Z,7.01
2022-11-11T08:28:32.000Z,7.00
2022-11-11T08:29:31.000Z,7.04
2022-11-11T08:30:31.000Z,7.06
2022-11-11T08:31:33.000Z,7.03
2022-11-11T08:32:31.000Z,7.07
2022-11-11T08:33:31.000Z,7.06
2022-11-11T08:34:30.000Z,7.08
2022-11-11T08:35:31.000Z,7.07
2022-11-11T08:36:31.000Z,7.10
2022-11-11T08:37:30.000Z,7.11
2022-11-11T08:38:31.000Z,7.13
2022-11-11T08:39:30.000Z,7.09
2022-11-11T08:40:31.000Z,7.13
2022-11-11T08:41:31.000Z,7.12
2022-11-11T08:42:30.000Z,7.12
2022-11-11T08:43:32.000Z,7.12
2022-11-11T08:44:31.000Z,7.12
2022-11-11T08:45:31.000Z,7.13
2022-11-11T08:46:31.000Z,7.14
2022-11-11T08:47:30.000Z,7.14
2022-11-11T08:48:31.000Z,7.15
2022-11-11T08:49:30.000Z,7.13
2022-11-11T08:50:30.000Z,7.13
2022-11-11T08:51:30.000Z,7.14
2022-11-11T08:52:31.000Z,7.14
2022-11-11T08:53:30.000Z,7.11
2022-11-11T08:54:31.000Z,7.12
2022-11-11T08:55:32.000Z,7.13
2022-11-11T08:56:31.000Z,7.13
2022-11-11T08:57:30.000Z,7.12
2022-11-11T08:58:31.000Z,7.13
2022-11-11T08:59:31.000Z,7.14
2022-11-11T09:00:32.000Z,7.13
2022-11-11T09:01:30.000Z,7.13
2022-11-11T09:02:31.000Z,7.14
2022-11-11T09:03:31.000Z,7.15
2022-11-11T09:04:30.000Z,7.15
2022-11-11T09:05:31.000Z,7.14
2022-11-11T09:06:30.000Z,7.15
2022-11-11T09:07:31.000Z,7.17
2022-11-11T09:08:30.000Z,7.19
2022-11-11T09:09:31.000Z,7.18
2022-11-11T09:10:32.000Z,7.18
2022-11-11T09:11:34.000Z,7.19
2022-11-11T09:12:31.000Z,7.20
2022-11-11T09:13:30.000Z,7.21
2022-11-11T09:14:30.000Z,7.22
2022-11-11T09:15:31.000Z,7.23
2022-11-11T09:16:30.000Z,7.23
2022-11-11T09:17:30.000Z,7.23
2022-11-11T09:18:31.000Z,7.29
2022-11-11T09:19:30.000Z,7.28
2022-11-11T09:20:30.000Z,7.29
2022-11-11T09:21:30.000Z,7.29
2022-11-11T09:22:30.000Z,7.28
2022-11-11T09:23:30.000Z,7.28
2022-11-11T09:24:30.000Z,7.30
2022-11-11T09:25:30.000Z,7.30
2022-11-11T09:26:30.000Z,7.32
2022-11-11T09:27:30.000Z,7.32
2022-11-11T09:28:32.000Z,7.32
2022-11-11T09:29:31.000Z,7.32
2022-11-11T09:30:30.000Z,7.36
2022-11-11T09:31:30.000Z,7.36
2022-11-11T09:32:31.000Z,7.35
2022-11-11T09:33:30.000Z,7.35
2022-11-11T09:34:30.000Z,7.36
2022-11-11T09:35:31.000Z,7.41
2022-11-11T09:36:31.000Z,7.38
2022-11-11T09:37:31.000Z,7.40
2022-11-11T09:38:31.000Z,7.42
2022-11-11T09:39:31.000Z,7.41
2022-11-11T09:40:47.000Z,7.42
2022-11-11T09:41:42.000Z,7.44
2022-11-11T09:42:38.000Z,7.45
2022-11-11T09:43:55.000Z,7.46
2022-11-11T09:44:50.000Z,7.44
2022-11-11T09:45:47.000Z,7.45
2022-11-11T09:46:52.000Z,7.50
2022-11-11T09:47:51.000Z,7.47
2022-11-11T09:48:45.000Z,7.46
2022-11-11T09:49:41.000Z,7.46
2022-11-11T09:50:34.000Z,7.48
2022-11-11T09:51:46.000Z,7.47
2022-11-11T09:52:41.000Z,7.46
2022-11-11T09:53:40.000Z,7.48
2022-11-11T09:54:41.000Z,7.49
2022-11-11T09:56:04.000Z,7.49
2022-11-11T09:56:31.000Z,7.49
2022-11-11T09:57:36.000Z,7.49
2022-11-11T09:58:42.000Z,7.50
2022-11-11T09:59:42.000Z,7.52
2022-11-11T10:00:35.000Z,7.55
2022-11-11T10:01:38.000Z,7.58
2022-11-11T10:02:37.000Z,7.57
2022-11-11T10:03:36.000Z,7.57
2022-11-11T10:04:50.000Z,7.59
2022-11-11T10:05:42.000Z,7.59
2022-11-11T10:06:33.000Z,7.58
2022-11-11T10:07:39.000Z,7.60
2022-11-11T10:08:46.000Z,7.59
2022-11-11T10:09:42.000Z,7.60
2022-11-11T10:10:42.000Z,7.65
2022-11-11T10:11:41.000Z,7.66
2022-11-11T10:12:40.000Z,7.69
2022-11-11T10:13:36.000Z,7.64
2022-11-11T10:14:35.000Z,7.62
2022-11-11T10:15:38.000Z,7.66
2022-11-11T10:16:49.000Z,7.65
2022-11-11T10:17:38.000Z,7.67
2022-11-11T10:18:51.000Z,7.69
2022-11-11T10:19:51.000Z,7.73
2022-11-11T10:20:39.000Z,7.75
2022-11-11T10:21:38.000Z,7.76
2022-11-11T10:22:36.000Z,7.78
2022-11-11T10:23:35.000Z,7.77
2022-11-11T10:24:34.000Z,7.78
2022-11-11T10:25:32.000Z,7.83
2022-11-11T10:26:38.000Z,7.86
2022-11-11T10:27:31.000Z,7.86
2022-11-11T10:28:34.000Z,7.88
2022-11-11T10:29:39.000Z,7.89
2022-11-11T10:30:31.000Z,7.92
2022-11-11T10:31:31.000Z,7.93
2022-11-11T10:32:33.000Z,7.94
2022-11-11T10:33:42.000Z,7.95
2022-11-11T10:34:32.000Z,7.94
2022-11-11T10:35:32.000Z,7.95
2022-11-11T10:36:31.000Z,8.01
2022-11-11T10:37:54.000Z,7.99
2022-11-11T10:38:51.000Z,7.98
2022-11-11T10:39:56.000Z,7.95
2022-11-11T10:40:50.000Z,7.94
2022-11-11T10:41:41.000Z,7.96
2022-11-11T10:42:31.000Z,7.98
2022-11-11T10:43:31.000Z,8.01
2022-11-11T10:44:32.000Z,8.01
2022-11-11T10:45:42.000Z,8.00
2022-11-11T10:46:39.000Z,8.01
2022-11-11T10:47:51.000Z,7.99
2022-11-11T10:48:41.000Z,8.01
2022-11-11T10:49:39.000Z,8.03
2022-11-11T10:50:41.000Z,8.04
2022-11-11T10:51:41.000Z,8.07
2022-11-11T10:52:38.000Z,8.11
2022-11-11T10:53:43.000Z,8.09
2022-11-11T10:54:38.000Z,8.09
2022-11-11T10:55:39.000Z,8.06
2022-11-11T10:56:41.000Z,8.10
2022-11-11T10:57:40.000Z,8.10
2022-11-11T10:58:38.000Z,8.05
2022-11-11T10:59:39.000Z,8.08
2022-11-11T11:00:32.000Z,8.13
2022-11-11T11:01:39.000Z,8.15
2022-11-11T11:03:01.000Z,8.15
2022-11-11T11:03:39.000Z,8.18
2022-11-11T11:04:49.000Z,8.23
2022-11-11T11:05:41.000Z,8.19
2022-11-11T11:06:36.000Z,8.23
2022-11-11T11:07:40.000Z,8.25
2022-11-11T11:08:49.000Z,8.26
2022-11-11T11:09:44.000Z,8.29
2022-11-11T11:10:39.000Z,8.32
2022-11-11T11:11:41.000Z,8.34
2022-11-11T11:12:45.000Z,8.30
2022-11-11T11:13:41.000Z,8.23
2022-11-11T11:14:40.000Z,8.22
2022-11-11T11:15:37.000Z,8.25
2022-11-11T11:16:34.000Z,8.22
2022-11-11T11:17:37.000Z,8.22
2022-11-11T11:18:31.000Z,8.20
2022-11-11T11:19:31.000Z,8.26
2022-11-11T11:20:31.000Z,8.28
2022-11-11T11:21:51.000Z,8.32
2022-11-11T11:22:41.000Z,8.28
2022-11-11T11:23:40.000Z,8.29
2022-11-11T11:24:33.000Z,8.30
2022-11-11T11:25:33.000Z,8.26
2022-11-11T11:26:41.000Z,8.28
2022-11-11T11:27:31.000Z,8.33
2022-11-11T11:28:31.000Z,8.33
2022-11-11T11:29:42.000Z,8.36
2022-11-11T11:30:31.000Z,8.35
2022-11-11T11:31:36.000Z,8.38
2022-11-11T11:32:31.000Z,8.38
2022-11-11T11:33:41.000Z,8.38
2022-11-11T11:34:41.000Z,8.38
2022-11-11T11:35:37.000Z,8.35
2022-11-11T11:36:31.000Z,8.40
2022-11-11T11:37:30.000Z,8.39
2022-11-11T11:38:40.000Z,8.39
2022-11-11T11:39:35.000Z,8.39
2022-11-11T11:40:41.000Z,8.43
2022-11-11T11:41:44.000Z,8.42
2022-11-11T11:42:33.000Z,8.43
2022-11-11T11:43:38.000Z,8.43
2022-11-11T11:44:36.000Z,8.43
2022-11-11T11:45:31.000Z,8.48
2022-11-11T11:46:37.000Z,8.52
2022-11-11T11:47:40.000Z,8.51
2022-11-11T11:48:50.000Z,8.54
2022-11-11T11:49:50.000Z,8.55
2022-11-11T11:50:54.000Z,8.57
2022-11-11T11:51:53.000Z,8.53
2022-11-11T11:52:48.000Z,8.52
2022-11-11T11:53:51.000Z,8.46
2022-11-11T11:54:51.000Z,8.43
2022-11-11T11:55:38.000Z,8.44
2022-11-11T11:56:41.000Z,8.47
2022-11-11T11:57:50.000Z,8.51
2022-11-11T11:59:10.000Z,8.50
2022-11-11T11:59:50.000Z,8.50
2022-11-11T12:00:41.000Z,8.53
2022-11-11T12:01:41.000Z,8.51
2022-11-11T12:03:04.000Z,8.49
2022-11-11T12:03:41.000Z,8.46
2022-11-11T12:04:51.000Z,8.50
2022-11-11T12:05:43.000Z,8.49
2022-11-11T12:06:41.000Z,8.54
2022-11-11T12:07:40.000Z,8.52
2022-11-11T12:08:40.000Z,8.52
2022-11-11T12:09:58.000Z,8.54
2022-11-11T12:10:47.000Z,8.53
2022-11-11T12:11:51.000Z,8.55
2022-11-11T12:12:43.000Z,8.54
2022-11-11T12:13:40.000Z,8.58
2022-11-11T12:14:43.000Z,8.57
2022-11-11T12:15:41.000Z,8.57
2022-11-11T12:16:45.000Z,8.59
2022-11-11T12:17:40.000Z,8.58
2022-11-11T12:18:50.000Z,8.59
2022-11-11T12:19:54.000Z,8.63
2022-11-11T12:20:40.000Z,8.66
2022-11-11T12:21:50.000Z,8.62
2022-11-11T12:22:40.000Z,8.61
2022-11-11T12:23:40.000Z,8.58
2022-11-11T12:24:52.000Z,8.60
2022-11-11T12:25:53.000Z,8.63
2022-11-11T12:26:46.000Z,8.64
2022-11-11T12:27:44.000Z,8.63
2022-11-11T12:29:04.000Z,8.62
2022-11-11T12:29:42.000Z,8.64
2022-11-11T12:30:31.000Z,8.65
2022-11-11T12:31:41.000Z,8.65
2022-11-11T12:32:53.000Z,8.65
2022-11-11T12:33:40.000Z,8.64
2022-11-11T12:34:41.000Z,8.66
2022-11-11T12:35:51.000Z,8.66
2022-11-11T12:36:46.000Z,8.68
2022-11-11T12:37:40.000Z,8.68
2022-11-11T12:38:40.000Z,8.66
2022-11-11T12:39:40.000Z,8.66
2022-11-11T12:40:56.000Z,8.67
2022-11-11T12:41:43.000Z,8.67
2022-11-11T12:42:55.000Z,8.70
2022-11-11T12:43:47.000Z,8.71
2022-11-11T12:44:50.000Z,8.68
2022-11-11T12:45:46.000Z,8.68
2022-11-11T12:46:53.000Z,8.73
2022-11-11T12:47:40.000Z,8.72
2022-11-11T12:48:40.000Z,8.67
2022-11-11T12:49:40.000Z,8.69
2022-11-11T12:50:40.000Z,8.69
2022-11-11T12:51:44.000Z,8.69
2022-11-11T12:52:44.000Z,8.68
2022-11-11T12:53:50.000Z,8.69
2022-11-11T12:54:40.000Z,8.69
2022-11-11T12:55:40.000Z,8.69
2022-11-11T12:56:40.000Z,8.69
2022-11-11T12:57:40.000Z,8.70
2022-11-11T12:58:40.000Z,8.68
2022-11-11T12:59:40.000Z,8.68
2022-11-11T13:00:42.000Z,8.68
2022-11-11T13:01:47.000Z,8.67
2022-11-11T13:02:53.000Z,8.70
2022-11-11T13:03:46.000Z,8.69
2022-11-11T13:04:56.000Z,8.71
2022-11-11T13:05:45.000Z,8.71
2022-11-11T13:06:54.000Z,8.72
2022-11-11T13:07:43.000Z,8.66
2022-11-11T13:08:54.000Z,8.70
2022-11-11T13:09:48.000Z,8.69
2022-11-11T13:10:46.000Z,8.70
2022-11-11T13:11:41.000Z,8.70
2022-11-11T13:12:43.000Z,8.72
2022-11-11T13:13:41.000Z,8.68
2022-11-11T13:14:41.000Z,8.66
2022-11-11T13:15:31.000Z,8.64
2022-11-11T13:16:31.000Z,8.66